Time;durP1;ratioP1;P1;durP2;ratioP2;P2;SDS_P1;SDS_P2;PMS_P1;PMS_P2;Temp;Humidity;BMP_temperature;BMP_pressure;BME280_temperature;BME280_humidity;BME280_pressure;Samples;Min_cycle;Max_cycle;Signal;HPM_P1;HPM_P2
2022/05/23 00:02:37;;;;;;;3.55;2.53;;;;;;;17.65;84.06;99787.47;8324652;28;20057;-61
2022/05/23 00:06:37;;;;;;;3.35;2.10;;;;;;;17.62;84.23;99768.75;8346834;28;20037;-61
2022/05/23 00:10:38;;;;;;;3.85;2.83;;;;;;;17.40;86.03;99765.28;8355100;28;20068;-61
2022/05/23 00:14:41;;;;;;;5.35;2.60;;;;;;;17.35;86.33;99761.44;8352531;28;20513;-61
2022/05/23 00:18:41;;;;;;;6.63;2.65;;;;;;;17.38;86.12;99777.44;8355162;28;20092;-61
2022/05/23 00:22:42;;;;;;;7.03;2.80;;;;;;;17.44;85.94;99772.03;8348565;28;20049;-61
2022/05/23 00:26:43;;;;;;;4.28;2.85;;;;;;;17.43;85.40;99747.66;8327804;28;20041;-61
2022/05/23 00:30:45;;;;;;;3.03;2.65;;;;;;;17.34;86.12;99737.91;8321768;28;20041;-61
2022/05/23 00:35:46;;;;;;;5.22;2.90;;;;;;;17.23;87.48;99747.50;8330501;28;20628;-61
2022/05/23 00:39:07;;;;;;;5.20;2.78;;;;;;;17.22;87.05;99744.97;8355037;28;20033;-61
2022/05/23 00:43:25;;;;;;;5.68;3.28;;;;;;;17.29;86.53;99740.38;8353855;28;20044;-61
2022/05/23 00:47:27;;;;;;;9.93;3.17;;;;;;;17.35;85.60;99751.34;8335978;28;20047;-61
2022/05/23 00:51:28;;;;;;;6.30;2.95;;;;;;;17.34;85.44;99748.81;8343918;28;20029;-61
2022/05/23 00:55:32;;;;;;;9.18;3.10;;;;;;;17.34;86.17;99743.38;8354343;28;20037;-61
2022/05/23 00:59:34;;;;;;;7.07;3.15;;;;;;;17.32;86.15;99729.06;8353477;28;20029;-61
2022/05/23 01:03:35;;;;;;;7.70;3.15;;;;;;;17.24;86.81;99731.97;8353766;28;20044;-61
2022/05/23 01:07:35;;;;;;;6.63;3.35;;;;;;;17.28;87.27;99733.25;8356029;28;20056;-61
2022/05/23 01:11:37;;;;;;;7.53;3.03;;;;;;;17.35;86.35;99734.09;8351894;28;20061;-61
2022/05/23 01:15:37;;;;;;;4.45;2.92;;;;;;;17.42;86.50;99735.00;8354066;28;20362;-61
2022/05/23 01:19:38;;;;;;;10.30;3.28;;;;;;;17.46;86.03;99741.78;8347401;28;20041;-61
2022/05/23 01:23:54;;;;;;;7.53;3.40;;;;;;;17.56;85.51;99750.44;8329126;28;20508;-61
2022/05/23 01:27:54;;;;;;;4.65;3.00;;;;;;;17.62;84.63;99746.88;8320763;28;20374;-61
2022/05/23 01:31:57;;;;;;;5.03;3.53;;;;;;;17.60;85.12;99738.06;8319304;28;20025;-61
2022/05/23 01:35:59;;;;;;;5.55;2.83;;;;;;;17.51;85.91;99736.56;8377804;28;20026;-61
2022/05/23 01:39:59;;;;;;;4.78;2.80;;;;;;;17.68;83.65;99728.84;8330653;28;20769;-61
2022/05/23 01:44:00;;;;;;;5.80;3.22;;;;;;;17.72;83.15;99725.50;8319384;28;20069;-61
2022/05/23 01:48:00;;;;;;;6.90;3.17;;;;;;;17.75;82.84;99730.50;8319838;28;20042;-61
2022/05/23 01:52:01;;;;;;;4.43;3.10;;;;;;;17.74;83.53;99734.31;8347273;28;20293;-61
2022/05/23 01:56:03;;;;;;;8.13;3.70;;;;;;;17.75;82.90;99725.03;8352899;28;20033;-61
2022/05/23 02:01:13;;;;;;;9.32;3.53;;;;;;;17.72;83.00;99717.28;8352957;28;20798;-61
2022/05/23 02:04:27;;;;;;;4.93;3.33;;;;;;;17.70;83.10;99711.16;8344862;28;20497;-61
2022/05/23 02:08:28;;;;;;;6.43;3.60;;;;;;;17.69;83.48;99709.50;8352060;28;20037;-61
2022/05/23 02:12:28;;;;;;;6.07;3.42;;;;;;;17.62;84.63;99707.78;8349716;28;20037;-61
2022/05/23 02:16:29;;;;;;;6.53;4.00;;;;;;;17.56;84.72;99693.88;8351329;28;20063;-61
2022/05/23 02:20:30;;;;;;;6.73;3.67;;;;;;;17.52;84.76;99689.03;8372879;28;20052;-61
2022/05/23 02:24:31;;;;;;;6.03;3.17;;;;;;;17.47;85.51;99683.31;8350536;28;20284;-61
2022/05/23 02:28:32;;;;;;;7.45;3.33;;;;;;;17.47;85.03;99680.59;8336274;28;20091;-61
2022/05/23 02:32:32;;;;;;;8.33;3.40;;;;;;;17.45;84.90;99677.25;8326214;28;20079;-61
2022/05/23 02:36:32;;;;;;;4.63;3.08;;;;;;;17.42;85.13;99663.97;8318194;28;20284;-61
2022/05/23 02:40:33;;;;;;;9.45;3.63;;;;;;;17.35;84.92;99652.13;8318098;28;20064;-61
2022/05/23 02:44:35;;;;;;;6.10;3.22;;;;;;;17.35;84.89;99638.47;8318459;28;20049;-61
2022/05/23 02:48:35;;;;;;;7.43;3.50;;;;;;;17.37;84.74;99639.97;8319504;28;20040;-61
2022/05/23 02:52:36;;;;;;;7.10;3.15;;;;;;;17.43;84.00;99630.13;8356809;28;20124;-61
2022/05/23 02:56:37;;;;;;;9.48;3.80;;;;;;;17.36;84.89;99631.97;8357880;28;20040;-61
2022/05/23 03:00:38;;;;;;;7.90;3.47;;;;;;;17.33;84.62;99621.47;8357214;28;20130;-61
2022/05/23 03:04:39;;;;;;;6.97;3.45;;;;;;;17.30;84.53;99616.41;8357039;28;20044;-61
2022/05/23 03:08:40;;;;;;;7.30;3.28;;;;;;;17.32;84.35;99614.28;8357050;28;20086;-61
2022/05/23 03:12:41;;;;;;;5.63;3.53;;;;;;;17.26;83.77;99609.69;8354364;28;20037;-61
2022/05/23 03:16:41;;;;;;;6.32;2.90;;;;;;;17.32;82.48;99604.22;8350146;28;20048;-61
2022/05/23 03:20:42;;;;;;;7.80;3.23;;;;;;;17.31;81.98;99597.09;8353631;28;20497;-61
2022/05/23 03:29:03;;;;;;;7.00;3.33;;;;;;;17.34;81.09;99590.34;8357114;28;20485;-61
2022/05/23 03:33:04;;;;;;;5.20;3.40;;;;;;;17.27;81.86;99573.94;8357025;28;20118;-61
2022/05/23 03:37:05;;;;;;;5.15;3.35;;;;;;;17.23;82.83;99560.91;8357521;28;20608;-61
2022/05/23 03:41:07;;;;;;;6.53;3.15;;;;;;;17.14;83.95;99553.97;8354832;28;20041;-61
2022/05/23 03:45:08;;;;;;;7.07;3.58;;;;;;;17.06;84.65;99543.22;8334615;28;20042;-61
2022/05/23 03:49:09;;;;;;;9.48;3.70;;;;;;;16.96;85.82;99531.84;8328300;28;20037;-61
2022/05/23 03:53:09;;;;;;;4.07;3.13;;;;;;;16.90;86.28;99524.47;8358745;28;20037;-61
2022/05/23 03:57:10;;;;;;;5.65;3.58;;;;;;;16.86;86.54;99520.44;8360241;28;20043;-61
2022/05/23 04:01:14;;;;;;;5.90;3.57;;;;;;;16.88;86.55;99513.75;8354461;28;20288;-61
2022/05/23 04:05:17;;;;;;;6.78;3.72;;;;;;;16.85;86.99;99513.31;8344163;28;20761;-61
2022/05/23 04:09:18;;;;;;;9.18;3.60;;;;;;;16.82;87.45;99497.34;8339629;28;20095;-61
2022/05/23 04:13:19;;;;;;;7.93;3.58;;;;;;;16.85;87.49;99497.78;8354532;28;20489;-61
2022/05/23 04:17:19;;;;;;;20.08;3.28;;;;;;;16.90;86.86;99488.97;8359773;28;20037;-61
2022/05/23 04:21:20;;;;;;;10.73;3.80;;;;;;;17.01;86.28;99497.41;8346833;28;20045;-61
2022/05/23 04:25:20;;;;;;;4.53;3.10;;;;;;;17.13;85.81;99503.09;8334628;28;20984;-61
2022/05/23 04:29:22;;;;;;;8.00;3.67;;;;;;;17.14;85.49;99497.41;8340562;28;20501;-61
2022/05/23 04:37:48;;;;;;;9.52;3.60;;;;;;;17.07;85.12;99479.34;8344788;28;20420;-61
2022/05/23 04:41:49;;;;;;;10.38;3.30;;;;;;;17.05;86.13;99476.00;8355591;28;20032;-61
2022/05/23 04:45:49;;;;;;;7.75;3.30;;;;;;;17.09;85.12;99469.06;8355949;28;20481;-61
2022/05/23 04:49:50;;;;;;;7.13;3.23;;;;;;;17.15;84.63;99460.88;8355177;28;20143;-61
2022/05/23 04:53:53;;;;;;;7.50;3.00;;;;;;;17.18;83.99;99468.66;8350137;28;20342;-61
2022/05/23 04:57:55;;;;;;;5.68;3.00;;;;;;;17.16;83.95;99456.25;8332003;28;20032;-61
2022/05/23 05:01:55;;;;;;;8.68;3.38;;;;;;;17.21;83.71;99451.00;8333811;28;20052;-61
2022/05/23 05:05:56;;;;;;;8.52;2.83;;;;;;;17.25;83.01;99428.53;8346572;28;20063;-61
2022/05/23 05:09:56;;;;;;;5.23;3.00;;;;;;;17.25;83.47;99422.22;8347718;28;20041;-61
2022/05/23 05:13:56;;;;;;;5.68;2.75;;;;;;;17.38;81.82;99417.59;8335903;28;20276;-61
2022/05/23 05:17:57;;;;;;;2.58;2.33;;;;;;;17.47;81.26;99420.97;8324825;28;20045;-61
2022/05/23 05:21:57;;;;;;;8.23;2.67;;;;;;;17.53;80.69;99415.50;8325754;28;20072;-61
2022/05/23 05:25:58;;;;;;;6.50;2.83;;;;;;;17.61;81.26;99400.78;8331120;28;20112;-61
2022/05/23 05:29:59;;;;;;;6.18;3.30;;;;;;;17.66;81.00;99398.28;8336275;28;20068;-61
2022/05/23 05:34:07;;;;;;;8.07;2.63;;;;;;;17.93;81.87;99397.13;8347678;28;20537;-62
2022/05/23 05:38:17;;;;;;;4.47;2.38;;;;;;;17.83;80.65;99394.00;8341360;28;20044;-61
2022/05/23 05:42:26;;;;;;;7.85;3.38;;;;;;;17.81;80.75;99396.09;8343146;28;20530;-61
2022/05/23 05:46:33;;;;;;;5.18;2.70;;;;;;;17.93;80.53;99394.38;8348641;28;20044;-62
2022/05/23 05:50:35;;;;;;;6.07;2.78;;;;;;;17.99;80.94;99379.84;8342710;28;20095;-62
2022/05/23 05:54:39;;;;;;;5.68;2.70;;;;;;;18.09;80.22;99382.16;8348194;28;20060;-62
2022/05/23 05:58:39;;;;;;;6.45;2.50;;;;;;;18.18;79.57;99381.69;8346273;28;20044;-62
2022/05/23 06:02:39;;;;;;;6.22;2.33;;;;;;;18.15;79.52;99382.13;8348278;28;20048;-62
2022/05/23 06:11:31;;;;;;;5.13;3.03;;;;;;;18.35;80.01;99382.03;8345663;28;20294;-61
2022/05/23 06:15:21;;;;;;;7.55;2.92;;;;;;;18.53;79.53;99374.81;8337555;28;20538;-61
2022/05/23 06:19:21;;;;;;;4.50;3.05;;;;;;;18.67;79.57;99367.34;8348505;28;20071;-61
2022/05/23 06:23:22;;;;;;;7.60;2.70;;;;;;;18.81;78.96;99371.66;8348083;28;20497;-62
2022/05/23 06:27:22;;;;;;;7.30;3.17;;;;;;;18.91;78.73;99383.81;8355029;28;20041;-62
2022/05/23 06:31:23;;;;;;;5.57;2.97;;;;;;;19.07;79.08;99383.31;8354864;28;20369;-62
2022/05/23 06:35:23;;;;;;;4.47;2.72;;;;;;;18.96;79.60;99384.00;8355081;28;20039;-62
2022/05/23 06:39:25;;;;;;;5.63;2.70;;;;;;;18.95;79.16;99389.69;8352781;28;20497;-61
2022/05/23 06:43:25;;;;;;;7.05;2.15;;;;;;;19.02;77.69;99383.13;8352584;28;20092;-61
2022/05/23 06:47:26;;;;;;;4.70;2.42;;;;;;;18.95;77.78;99379.59;8354217;28;20048;-61
2022/05/23 06:51:27;;;;;;;7.57;2.75;;;;;;;18.92;77.96;99362.75;8353911;28;20827;-61
2022/05/23 06:55:28;;;;;;;5.95;2.42;;;;;;;18.88;78.31;99356.06;8354361;28;20075;-61
2022/05/23 06:59:28;;;;;;;5.25;2.50;;;;;;;18.94;78.15;99344.22;8354528;28;20048;-61
2022/05/23 07:03:29;;;;;;;6.95;2.65;;;;;;;18.90;77.43;99338.31;8353706;28;20056;-62
2022/05/23 07:12:20;;;;;;;6.10;2.53;;;;;;;18.98;77.45;99329.84;8363998;28;20283;-62
2022/05/23 07:16:10;;;;;;;5.30;2.50;;;;;;;19.08;77.59;99324.69;8355221;28;20055;-62
2022/05/23 07:20:11;;;;;;;5.63;2.53;;;;;;;19.24;77.38;99307.69;8354054;28;20493;-61
2022/05/23 07:24:11;;;;;;;6.90;2.60;;;;;;;19.38;77.53;99309.25;8353380;28;20049;-61
2022/05/23 07:28:12;;;;;;;5.60;2.60;;;;;;;19.61;76.61;99305.00;8353787;28;20040;-61
2022/05/23 07:32:13;;;;;;;6.78;3.13;;;;;;;19.71;76.54;99302.56;8352942;28;20041;-61
2022/05/23 07:36:14;;;;;;;5.43;2.33;;;;;;;19.69;76.84;99299.22;8351273;28;20029;-61
2022/05/23 07:40:16;;;;;;;5.93;2.92;;;;;;;19.90;76.54;99282.28;8352542;28;20137;-61
2022/05/23 07:44:16;;;;;;;4.28;2.45;;;;;;;20.02;77.87;99288.69;8352525;28;20037;-61
2022/05/23 07:48:17;;;;;;;5.47;2.72;;;;;;;20.02;76.39;99283.19;8353195;28;20435;-61
2022/05/23 07:52:18;;;;;;;9.05;2.55;;;;;;;20.11;77.08;99281.81;8352434;28;20037;-61
2022/05/23 08:00:39;;;;;;;6.63;2.58;;;;;;;20.24;74.66;99278.91;8349817;28;20040;-61
2022/05/23 08:04:40;;;;;;;4.38;2.00;;;;;;;20.22;74.56;99264.59;8351736;28;20044;-61
2022/05/23 08:08:40;;;;;;;4.32;2.17;;;;;;;20.12;76.26;99273.38;8352323;28;20041;-61
2022/05/23 08:12:49;;;;;;;6.03;1.90;;;;;;;20.19;75.40;99251.34;8350761;28;20044;-62
2022/05/23 08:16:50;;;;;;;5.53;2.30;;;;;;;20.37;75.37;99267.75;8346393;28;20092;-62
2022/05/23 08:20:51;;;;;;;6.82;2.20;;;;;;;20.60;73.99;99259.56;8339288;28;20048;-62
2022/05/23 08:24:51;;;;;;;4.25;2.03;;;;;;;20.67;72.64;99274.03;8346501;28;20063;-62
2022/05/23 08:28:52;;;;;;;8.37;2.40;;;;;;;20.75;73.24;99251.72;8343133;28;20029;-62
2022/05/23 08:32:52;;;;;;;5.82;2.40;;;;;;;21.10;73.10;99255.34;8348959;28;20369;-62
2022/05/23 08:36:52;;;;;;;2.27;1.73;;;;;;;21.17;72.83;99245.09;8343802;28;20036;-61
2022/05/23 08:41:16;;;;;;;5.65;2.90;;;;;;;21.07;71.52;99253.06;8345624;28;20672;-62
2022/05/23 08:45:35;;;;;;;;;;;;;;;21.19;73.68;99259.41;8345539;28;20055;-62
2022/05/23 08:54:25;;;;;;;3.08;1.90;;;;;;;21.41;72.11;99263.25;8406629;27;20429;-63
2022/05/23 08:58:34;;;;;;;3.47;1.88;;;;;;;21.39;71.00;99259.91;8397418;28;20036;-61
2022/05/23 09:02:55;;;;;;;8.57;2.20;;;;;;;21.71;70.56;99258.41;8405221;28;20145;-61
2022/05/23 09:06:58;;;;;;;2.28;1.75;;;;;;;22.06;69.67;99239.91;8404465;28;20578;-63
2022/05/23 09:11:05;;;;;;;4.05;1.83;;;;;;;22.55;69.33;99224.59;8397958;28;20048;-65
2022/05/23 09:15:06;;;;;;;7.55;2.15;;;;;;;22.49;69.67;99201.59;8405179;28;20048;-61
2022/05/23 09:19:21;;;;;;;6.63;2.40;;;;;;;23.02;67.24;99190.91;8382714;28;20484;-61
2022/05/23 09:23:28;;;;;;;3.78;1.60;;;;;;;23.41;67.58;99177.16;8370017;28;20111;-61
2022/05/23 09:27:35;;;;;;;3.47;1.75;;;;;;;23.66;66.02;99164.50;8364579;28;20037;-62
2022/05/23 09:31:47;;;;;;;5.80;2.22;;;;;;;23.01;66.71;99160.84;8355390;28;20045;-62
2022/05/23 09:35:54;;;;;;;4.25;2.03;;;;;;;22.84;67.47;99155.34;8361524;28;20464;-62
2022/05/23 09:39:57;;;;;;;7.28;2.30;;;;;;;22.80;69.17;99169.88;8369816;28;20043;-62
2022/05/23 09:48:18;;;;;;;3.10;1.92;;;;;;;23.07;68.93;99160.69;8363334;28;20841;-62
2022/05/23 09:52:27;;;;;;;3.67;2.20;;;;;;;23.99;68.61;99135.91;8363604;28;20404;-62
2022/05/23 09:56:38;;;;;;;5.18;2.35;;;;;;;25.34;64.59;99142.53;8355006;28;20102;-62
2022/05/23 10:00:55;;;;;;;5.93;2.15;;;;;;;26.10;62.44;99150.03;8364669;28;20055;-62
2022/05/23 10:04:56;;;;;;;4.35;2.03;;;;;;;26.49;60.48;99129.03;8352605;28;20184;-62
2022/05/23 10:08:57;;;;;;;3.33;1.58;;;;;;;27.43;59.64;99111.69;8333980;28;20041;-62
2022/05/23 10:13:20;;;;;;;4.32;2.00;;;;;;;27.60;57.91;99109.41;8347456;28;20037;-62
2022/05/23 10:17:26;;;;;;;3.17;1.43;;;;;;;28.04;57.98;99104.72;8341184;28;20045;-62
2022/05/23 10:21:35;;;;;;;6.22;1.80;;;;;;;27.97;58.50;99098.66;8343361;28;20041;-62
2022/05/23 10:25:43;;;;;;;6.13;1.60;;;;;;;29.09;56.98;99075.19;8345032;28;20523;-61
2022/05/23 10:30:02;;;;;;;9.93;1.92;;;;;;;28.34;56.54;99082.25;8339009;28;20072;-62
2022/05/23 10:34:42;;;;;;;2.95;1.67;;;;;;;27.89;59.76;99074.25;8344519;28;20049;-61
2022/05/23 10:43:21;;;;;;;5.03;1.42;;;;;;;27.41;60.73;99045.34;8342988;28;20044;-61
2022/05/23 10:47:36;;;;;;;4.22;1.85;;;;;;;26.45;62.63;99042.00;8342119;28;20072;-61
2022/05/23 10:52:18;;;;;;;5.38;2.10;;;;;;;26.25;63.79;99036.44;8350216;28;20055;-61
2022/05/23 11:00:55;;;;;;;6.10;1.83;;;;;;;25.96;65.78;99021.47;8378179;27;20394;-61
2022/05/23 11:05:27;;;;;;;4.57;2.30;;;;;;;25.50;67.60;99011.44;8353526;28;20093;-61
2022/05/23 11:09:44;;;;;;;2.42;2.05;;;;;;;25.30;68.64;98994.75;8347110;28;20071;-61
2022/05/23 11:14:09;;;;;;;4.53;2.03;;;;;;;25.38;68.15;98985.94;8362180;28;21895;-61
2022/05/23 11:22:58;;;;;;;3.92;2.03;;;;;;;25.91;67.91;98979.06;8394231;27;20739;-61
2022/05/23 11:36:09;;;;;;;2.22;1.88;;;;;;;27.48;62.10;98945.91;8381088;28;20055;-62
2022/05/23 11:40:14;;;;;;;6.03;2.00;;;;;;;27.15;65.04;98940.25;8388194;28;20032;-63
2022/05/23 11:48:58;;;;;;;4.05;1.90;;;;;;;26.55;64.40;98933.84;8383280;27;21764;-62
2022/05/23 11:53:09;;;;;;;4.28;1.92;;;;;;;26.42;65.02;98945.53;8371575;27;20451;-62
2022/05/23 11:57:14;;;;;;;8.70;2.53;;;;;;;26.54;63.16;98940.50;8348446;28;20412;-62
2022/05/23 12:01:22;;;;;;;6.75;2.30;;;;;;;26.73;63.17;98958.22;8340954;28;20043;-62
2022/05/23 12:05:33;;;;;;;6.57;2.30;;;;;;;26.81;62.91;98952.06;8341526;28;20047;-62
2022/05/23 12:09:37;;;;;;;7.63;2.65;;;;;;;26.68;62.54;98958.22;8350649;28;20055;-62
2022/05/23 12:13:41;;;;;;;7.63;2.67;;;;;;;26.39;62.12;98948.03;8347467;28;20037;-62
2022/05/23 12:17:57;;;;;;;4.77;2.30;;;;;;;25.99;64.22;98960.00;8357070;28;20703;-63
2022/05/23 12:22:32;;;;;;;8.25;3.03;;;;;;;25.40;65.73;98950.50;8361382;27;20275;-63
2022/05/23 12:26:33;;;;;;;4.47;2.10;;;;;;;24.99;67.15;98955.09;8340475;28;20037;-63
2022/05/23 12:30:37;;;;;;;4.65;2.50;;;;;;;24.71;68.93;98968.53;8346518;28;20044;-63
2022/05/23 12:34:46;;;;;;;6.68;3.08;;;;;;;24.58;69.50;98963.47;8347485;28;20056;-63
2022/05/23 12:43:50;;;;;;;8.55;2.50;;;;;;;24.32;71.05;98980.97;8289914;27;20881;-63
2022/05/23 12:48:23;;;;;;;5.75;2.42;;;;;;;24.27;72.08;98983.69;8289228;28;20055;-63
2022/05/23 12:52:53;;;;;;;9.82;3.35;;;;;;;24.14;73.01;98962.91;8279068;28;20497;-63
2022/05/23 12:57:33;;;;;;;5.75;2.65;;;;;;;23.90;74.11;98971.78;8266206;28;20042;-63
2022/05/23 13:01:37;;;;;;;9.63;2.95;;;;;;;23.78;75.22;98960.13;8268194;28;20418;-63
2022/05/23 13:05:44;;;;;;;5.10;2.85;;;;;;;23.67;79.77;98966.66;8274791;28;20093;-62
2022/05/23 13:09:59;;;;;;;9.60;3.70;;;;;;;22.77;87.72;98956.28;8278940;28;20042;-62
2022/05/23 13:13:59;;;;;;;10.25;4.07;;;;;;;22.17;94.75;98949.09;8278841;28;20044;-62
2022/05/23 13:22:25;;;;;;;14.00;4.45;;;;;;;21.04;100.00;98924.59;8261752;28;20038;-63
2022/05/23 13:26:27;;;;;;;13.00;5.43;;;;;;;20.73;100.00;98921.47;8282661;28;20526;-63
2022/05/23 13:30:34;;;;;;;14.20;5.63;;;;;;;20.80;100.00;98927.69;8278202;28;20042;-63
2022/05/23 13:34:37;;;;;;;14.05;6.20;;;;;;;20.53;100.00;98912.84;8275607;28;20081;-63
2022/05/23 13:38:43;;;;;;;19.15;5.97;;;;;;;20.45;100.00;98902.22;8267036;28;20046;-64
2022/05/23 13:42:45;;;;;;;8.60;4.70;;;;;;;20.76;100.00;98879.78;8273039;28;20104;-64
2022/05/23 13:46:46;;;;;;;10.45;5.72;;;;;;;21.08;100.00;98851.56;8259883;28;20038;-64
2022/05/23 13:50:54;;;;;;;11.05;5.50;;;;;;;21.37;100.00;98838.59;8264166;28;20096;-64
2022/05/23 13:55:05;;;;;;;9.52;4.85;;;;;;;21.31;100.00;98823.09;8261539;28;20129;-64
2022/05/23 13:59:12;;;;;;;11.30;4.20;;;;;;;21.79;100.00;98839.84;8246810;28;20042;-64
2022/05/23 14:03:22;;;;;;;8.40;4.90;;;;;;;22.20;100.00;98836.53;8263473;28;20121;-64
2022/05/23 14:07:27;;;;;;;9.55;4.30;;;;;;;22.55;100.00;98827.91;8245948;28;20046;-62
2022/05/23 14:11:32;;;;;;;7.57;3.50;;;;;;;23.09;95.09;98835.06;8254956;28;20050;-62
2022/05/23 14:15:33;;;;;;;6.97;3.58;;;;;;;23.15;96.79;98826.56;8253393;28;20052;-62
2022/05/23 14:19:43;;;;;;;6.82;3.63;;;;;;;23.10;94.06;98823.78;8253725;28;20411;-63
2022/05/23 14:23:52;;;;;;;5.40;3.75;;;;;;;22.84;94.41;98810.84;8230952;28;20060;-63
2022/05/23 14:27:54;;;;;;;5.70;3.13;;;;;;;22.72;94.27;98815.69;8251778;28;20074;-65
2022/05/23 14:32:00;;;;;;;10.13;3.97;;;;;;;22.68;96.19;98809.03;8258608;28;20038;-65
2022/05/23 14:36:18;;;;;;;7.30;3.50;;;;;;;22.44;95.71;98806.78;8254256;28;20038;-65
2022/05/23 14:40:34;;;;;;;6.72;3.03;;;;;;;22.19;100.00;98799.09;8246569;28;20388;-64
2022/05/23 14:44:35;;;;;;;6.78;3.50;;;;;;;22.03;100.00;98804.66;8256231;28;20045;-63
2022/05/23 14:48:35;;;;;;;9.40;3.77;;;;;;;21.99;100.00;98804.31;8256283;28;20042;-63
2022/05/23 14:52:46;;;;;;;7.22;3.97;;;;;;;21.77;100.00;98836.50;8247931;28;20285;-64
2022/05/23 14:57:05;;;;;;;11.38;4.93;;;;;;;21.64;100.00;98834.06;8243045;28;20178;-63
2022/05/23 15:01:07;;;;;;;10.23;5.75;;;;;;;21.49;100.00;98822.84;8242674;28;20131;-63
2022/05/23 15:05:09;;;;;;;9.70;5.03;;;;;;;21.40;100.00;98816.09;8249581;28;20209;-63
2022/05/23 15:09:10;;;;;;;10.50;5.97;;;;;;;21.16;100.00;98795.34;8250159;28;20038;-63
2022/05/23 15:13:12;;;;;;;16.17;7.22;;;;;;;20.93;100.00;98798.25;8255898;28;20042;-63
2022/05/23 15:17:16;;;;;;;11.27;6.72;;;;;;;20.75;100.00;98795.72;8258538;28;20030;-63
2022/05/23 15:21:16;;;;;;;10.53;7.10;;;;;;;20.62;100.00;98807.84;8248970;28;20053;-63
2022/05/23 15:25:16;;;;;;;14.25;7.53;;;;;;;20.42;100.00;98818.47;8248380;28;20387;-63
2022/05/23 15:29:18;;;;;;;10.20;6.40;;;;;;;20.22;100.00;98828.22;8239409;28;20046;-63
2022/05/23 15:33:18;;;;;;;12.05;5.32;;;;;;;20.07;100.00;98825.13;8261033;28;20188;-63
2022/05/23 15:37:18;;;;;;;9.82;4.85;;;;;;;20.02;100.00;98822.25;8244832;28;20049;-63
2022/05/23 15:41:19;;;;;;;6.55;4.63;;;;;;;20.08;100.00;98813.91;8248603;28;20088;-63
2022/05/23 15:45:24;;;;;;;6.47;3.90;;;;;;;19.85;100.00;98804.91;8248350;28;20577;-63
2022/05/23 15:49:26;;;;;;;8.77;4.50;;;;;;;19.74;100.00;98803.00;8252155;28;20046;-63
2022/05/23 15:53:27;;;;;;;6.90;4.32;;;;;;;19.67;100.00;98794.06;8258351;28;20395;-63
2022/05/23 15:57:31;;;;;;;4.95;3.42;;;;;;;19.45;100.00;98767.28;8250839;28;20042;-63
2022/05/23 16:01:32;;;;;;;8.23;3.67;;;;;;;19.43;100.00;98752.97;8243536;28;20069;-63
2022/05/23 16:05:32;;;;;;;7.75;4.18;;;;;;;19.43;100.00;98739.25;8245011;28;20050;-63
2022/05/23 16:09:33;;;;;;;7.13;3.88;;;;;;;19.43;100.00;98742.00;8247219;28;20125;-63
2022/05/23 16:13:35;;;;;;;4.60;3.47;;;;;;;19.65;100.00;98738.63;8243677;28;20133;-64
2022/05/23 16:17:38;;;;;;;5.70;4.03;;;;;;;19.80;100.00;98720.59;8244819;28;20042;-64
2022/05/23 16:21:38;;;;;;;8.93;4.70;;;;;;;19.78;100.00;98710.94;8251783;28;20137;-64
2022/05/23 16:25:40;;;;;;;8.30;4.10;;;;;;;19.86;100.00;98702.31;8260525;28;20103;-64
2022/05/23 16:29:41;;;;;;;10.52;5.45;;;;;;;20.14;100.00;98683.16;8270306;28;20128;-64
2022/05/23 16:38:01;;;;;;;8.82;5.70;;;;;;;20.52;100.00;98670.38;8252208;28;20033;-64
2022/05/23 16:42:03;;;;;;;15.13;6.30;;;;;;;20.71;100.00;98674.53;8254773;28;20066;-63
2022/05/23 16:46:04;;;;;;;13.18;7.13;;;;;;;20.75;100.00;98669.38;8243439;28;20092;-63
2022/05/23 16:50:05;;;;;;;13.63;7.30;;;;;;;20.78;100.00;98663.41;8238382;28;20043;-63
2022/05/23 16:54:08;;;;;;;16.52;8.27;;;;;;;20.75;100.00;98653.75;8235951;28;20121;-63
2022/05/23 16:58:08;;;;;;;13.73;9.32;;;;;;;20.78;100.00;98649.66;8245318;28;20042;-63
2022/05/23 17:02:09;;;;;;;19.73;9.35;;;;;;;20.93;100.00;98656.22;8246233;28;20046;-64
2022/05/23 17:06:09;;;;;;;17.88;8.27;;;;;;;21.01;100.00;98675.03;8241836;28;20049;-64
2022/05/23 17:10:10;;;;;;;14.77;8.50;;;;;;;21.09;100.00;98677.38;8243526;28;20050;-64
2022/05/23 17:14:11;;;;;;;11.75;7.05;;;;;;;21.09;100.00;98673.78;8248017;28;20316;-64
2022/05/23 17:18:12;;;;;;;12.45;7.25;;;;;;;21.11;100.00;98674.38;8266743;28;20035;-64
2022/05/23 17:22:12;;;;;;;11.40;6.85;;;;;;;21.12;100.00;98681.53;8243524;28;20125;-64
2022/05/23 17:26:13;;;;;;;8.90;6.00;;;;;;;21.13;100.00;98677.69;8263861;28;20409;-64
2022/05/23 17:30:15;;;;;;;11.02;5.55;;;;;;;21.10;100.00;98683.69;8258974;28;20289;-64
2022/05/23 17:34:15;;;;;;;10.63;5.38;;;;;;;21.11;100.00;98685.38;8256410;28;20074;-64
2022/05/23 17:38:16;;;;;;;7.37;5.30;;;;;;;21.13;100.00;98688.69;8269025;28;20078;-64
2022/05/23 17:42:17;;;;;;;9.30;4.97;;;;;;;21.04;100.00;98688.28;8237764;28;20852;-64
2022/05/23 17:46:23;;;;;;;6.93;5.03;;;;;;;20.93;100.00;98699.34;8253931;28;20281;-64
2022/05/23 17:50:24;;;;;;;10.30;4.47;;;;;;;20.56;100.00;98703.69;8257636;28;20575;-64
2022/05/23 17:54:24;;;;;;;8.52;4.05;;;;;;;20.33;100.00;98709.28;8244464;28;20117;-64
2022/05/23 17:58:25;;;;;;;7.47;3.97;;;;;;;19.99;100.00;98713.84;8251586;28;20083;-64
2022/05/23 18:02:25;;;;;;;6.78;3.70;;;;;;;19.76;100.00;98715.84;8256646;28;20343;-64
2022/05/23 18:06:26;;;;;;;5.75;4.30;;;;;;;19.69;100.00;98724.19;8263523;28;20054;-64
2022/05/23 18:10:27;;;;;;;10.43;4.05;;;;;;;19.58;100.00;98733.31;8260545;28;20114;-64
2022/05/23 18:19:48;;;;;;;5.03;3.28;;;;;;;19.40;100.00;98747.97;8254280;28;20038;-64
2022/05/23 18:23:08;;;;;;;5.47;3.90;;;;;;;19.37;100.00;98753.94;8243896;28;20035;-64
2022/05/23 18:27:09;;;;;;;6.97;3.97;;;;;;;19.32;100.00;98755.72;8254754;28;20077;-64
2022/05/23 18:31:09;;;;;;;5.95;3.60;;;;;;;19.35;100.00;98767.06;8252191;28;20045;-64
2022/05/23 18:35:10;;;;;;;3.42;3.13;;;;;;;19.31;100.00;98782.28;8257538;28;20120;-64
2022/05/23 18:39:12;;;;;;;7.22;3.75;;;;;;;19.14;100.00;98775.00;8259372;28;20053;-64
2022/05/23 18:43:13;;;;;;;5.32;4.45;;;;;;;19.02;100.00;98788.69;8253279;28;20425;-64
2022/05/23 18:47:14;;;;;;;7.28;4.90;;;;;;;18.94;100.00;98797.25;8252960;28;20113;-64
2022/05/23 18:51:14;;;;;;;7.93;5.60;;;;;;;18.96;100.00;98811.53;8250012;28;20042;-64
2022/05/23 18:55:15;;;;;;;13.57;10.45;;;;;;;18.75;100.00;98825.78;8253273;28;20062;-65
2022/05/23 18:59:15;;;;;;;22.55;17.75;;;;;;;18.58;100.00;98841.22;8261496;28;20357;-64
2022/05/23 19:03:16;;;;;;;29.55;22.42;;;;;;;18.20;100.00;98869.91;8266158;28;20513;-64
2022/05/23 19:07:19;;;;;;;50.90;34.42;;;;;;;17.88;100.00;98893.84;8260317;28;20038;-64
2022/05/23 19:11:21;;;;;;;57.72;39.78;;;;;;;17.61;100.00;98911.56;8267142;28;20053;-64
2022/05/23 19:15:22;;;;;;;61.75;41.33;;;;;;;17.44;100.00;98913.16;8251621;28;20046;-64
2022/05/23 19:19:22;;;;;;;63.88;42.65;;;;;;;17.30;100.00;98927.97;8244834;28;20045;-64
2022/05/23 19:23:24;;;;;;;63.25;42.35;;;;;;;17.16;100.00;98945.50;8263071;28;20054;-64
2022/05/23 19:27:25;;;;;;;64.15;41.38;;;;;;;17.09;100.00;98958.38;8249516;28;20038;-64
2022/05/23 19:31:25;;;;;;;51.08;35.97;;;;;;;16.92;100.00;98970.88;8232183;28;20053;-64
2022/05/23 19:35:26;;;;;;;44.13;29.42;;;;;;;16.86;100.00;98985.38;8244887;28;20062;-64
2022/05/23 19:39:27;;;;;;;37.65;28.17;;;;;;;16.72;100.00;98994.72;8246586;28;20050;-64
2022/05/23 19:43:27;;;;;;;35.22;23.90;;;;;;;16.65;100.00;99015.75;8242581;28;20088;-64
2022/05/23 19:47:30;;;;;;;40.33;27.55;;;;;;;16.66;100.00;99039.25;8232265;28;20121;-64
2022/05/23 19:51:31;;;;;;;36.20;25.48;;;;;;;16.67;100.00;99046.38;8243236;28;20074;-64
2022/05/23 19:55:32;;;;;;;35.55;26.00;;;;;;;16.60;100.00;99059.19;8248291;28;20093;-64
2022/05/23 19:59:37;;;;;;;34.47;23.88;;;;;;;16.48;100.00;99074.56;8258475;28;20069;-64
2022/05/23 20:07:59;;;;;;;27.08;17.88;;;;;;;16.44;100.00;99090.50;8268114;28;20045;-64
2022/05/23 20:12:00;;;;;;;20.08;15.55;;;;;;;16.43;100.00;99109.75;8244948;28;20043;-64
2022/05/23 20:16:00;;;;;;;25.63;17.10;;;;;;;16.40;100.00;99104.72;8280629;28;20030;-64
2022/05/23 20:20:01;;;;;;;25.15;17.35;;;;;;;16.38;100.00;99118.59;8240381;28;20371;-64
2022/05/23 20:24:01;;;;;;;27.63;18.50;;;;;;;16.32;100.00;99107.69;8237885;28;20040;-64